| time (UTC) | temp F | wind direction | speed MPH | gust MPH | rain 1hr in | rain 24hr in | rain mn in | humidity % | barometer mb |
| 20260508130000 | 63 | 41 | 5.0 | 12.0 | 0.02 | 0.03 | 0.02 | 82 | 1014.6 |
| 20260508123956 | 65 | 38 | 13.0 | 19.0 | 0.00 | 0.01 | 0.00 | 74 | 1014.6 |
| 20260508122957 | 65 | 42 | 6.0 | 18.0 | 0.00 | 0.01 | 0.00 | 72 | 1014.7 |
| 20260508122000 | 66 | 56 | 7.0 | 8.0 | 0.00 | 0.01 | 0.00 | 72 | 1014.6 |
| 20260508120956 | 66 | 75 | 4.0 | 5.0 | 0.00 | 0.01 | 0.00 | 71 | 1014.5 |
| 20260508115957 | 66 | 54 | 3.0 | 8.0 | 0.00 | 0.01 | 0.00 | 72 | 1014.5 |
| 20260508114957 | 66 | 52 | 3.0 | 4.0 | 0.00 | 0.01 | 0.00 | 71 | 1014.4 |
| 20260508113957 | 66 | 29 | 3.0 | 8.0 | 0.00 | 0.01 | 0.00 | 70 | 1014.3 |
| 20260508112958 | 66 | 340 | 2.0 | 12.0 | 0.00 | 0.01 | 0.00 | 70 | 1014.3 |
| 20260508111956 | 67 | 87 | 0.0 | 1.0 | 0.00 | 0.01 | 0.00 | 69 | 1014.2 |
| 20260508105956 | 67 | 0 | 0.0 | 0.0 | 0.00 | 0.01 | 0.00 | 70 | 1014.2 |
| 20260508104956 | 67 | 97 | 0.0 | 1.0 | 0.00 | 0.01 | 0.00 | 68 | 1014.2 |
| 20260508103958 | 68 | 0 | 0.0 | 0.0 | 0.00 | 0.01 | 0.00 | 68 | 1014.1 |
| 20260508102957 | 68 | 0 | 0.0 | 0.0 | 0.00 | 0.01 | 0.00 | 68 | 1014.1 |
| 20260508101956 | 67 | 241 | 0.0 | 1.0 | 0.00 | 0.01 | 0.00 | 68 | 1014.0 |
| 20260508100956 | 68 | 314 | 1.0 | 10.0 | 0.00 | 0.01 | 0.00 | 68 | 1014.1 |
| 20260508095958 | 69 | 0 | 2.0 | 0.0 | 0.00 | 0.01 | 0.00 | 67 | 1013.9 |
| 20260508094956 | 68 | 68 | 0.0 | 10.0 | 0.00 | 0.01 | 0.00 | 68 | 1013.9 |
| 20260508094006 | 67 | 70 | 1.0 | 3.0 | 0.00 | 0.01 | 0.00 | 69 | 1013.8 |
| 20260508092956 | 67 | 159 | 0.0 | 2.0 | 0.00 | 0.01 | 0.00 | 68 | 1013.8 |
| 20260508090957 | 66 | 96 | 1.0 | 5.0 | 0.00 | 0.01 | 0.00 | 70 | 1013.8 |
| 20260508085958 | 66 | 48 | 0.0 | 2.0 | 0.00 | 0.01 | 0.00 | 70 | 1013.7 |
| 20260508083956 | 65 | 76 | 1.0 | 6.0 | 0.00 | 0.01 | 0.00 | 71 | 1013.7 |
| 20260508082958 | 65 | 66 | 1.0 | 4.0 | 0.00 | 0.01 | 0.00 | 70 | 1013.6 |
| 20260508081957 | 65 | 49 | 1.0 | 6.0 | 0.00 | 0.01 | 0.00 | 70 | 1013.6 |
| 20260508080958 | 65 | 86 | 1.0 | 7.0 | 0.00 | 0.01 | 0.00 | 70 | 1013.5 |
| 20260508075957 | 65 | 130 | 1.0 | 3.0 | 0.00 | 0.01 | 0.00 | 71 | 1013.4 |
| 20260508074957 | 64 | 74 | 2.0 | 1.0 | 0.00 | 0.01 | 0.00 | 72 | 1013.4 |
| 20260508073957 | 64 | 353 | 4.0 | 10.0 | 0.00 | 0.01 | 0.00 | 72 | 1013.3 |
| 20260508072958 | 64 | 339 | 1.0 | 9.0 | 0.00 | 0.01 | 0.00 | 72 | 1013.3 |
| 20260508071957 | 63 | 0 | 0.0 | 0.0 | 0.00 | 0.01 | 0.00 | 72 | 1013.2 |
| 20260508070957 | 63 | 0 | 0.0 | 0.0 | 0.00 | 0.01 | 0.00 | 74 | 1013.2 |
| 20260508065957 | 62 | 54 | 1.0 | 7.0 | 0.00 | 0.01 | 0.00 | 74 | 1013.2 |
| 20260508064957 | 61 | 59 | 0.0 | 5.0 | 0.00 | 0.01 | 0.00 | 76 | 1013.2 |
| 20260508062958 | 59 | 67 | 2.0 | 6.0 | 0.00 | 0.01 | 0.00 | 80 | 1013.1 |
| 20260508061957 | 58 | 0 | 0.0 | 0.0 | 0.00 | 0.01 | 0.00 | 82 | 1013.1 |
| 20260508060957 | 58 | 71 | 0.0 | 3.0 | 0.00 | 0.01 | 0.00 | 80 | 1013.0 |
| 20260508055957 | 58 | 74 | 1.0 | 4.0 | 0.00 | 0.01 | 0.00 | 82 | 1013.0 |
| 20260508054959 | 57 | 75 | 1.0 | 4.0 | 0.00 | 0.01 | 0.00 | 83 | 1013.1 |
| 20260508053958 | 56 | 0 | 0.0 | 0.0 | 0.00 | 0.01 | 0.00 | 85 | 1013.0 |
| 20260508052956 | 55 | 0 | 0.0 | 0.0 | 0.00 | 0.01 | 0.00 | 85 | 1013.0 |
| 20260508050957 | 54 | 86 | 0.0 | 2.0 | 0.00 | 0.01 | 0.00 | 88 | 1012.8 |
| 20260508050000 | 53 | 85 | 1.0 | 3.0 | 0.00 | 0.01 | 0.00 | 88 | 1012.9 |
| 20260508043958 | 53 | 54 | 0.0 | 3.0 | 0.00 | 0.01 | 0.00 | 88 | 1012.7 |
| 20260508042957 | 53 | 0 | 0.0 | 0.0 | 0.00 | 0.01 | 0.00 | 88 | 1012.5 |
| 20260508041956 | 52 | 74 | 0.0 | 1.0 | 0.00 | 0.01 | 0.00 | 90 | 1012.4 |
| 20260508035958 | 51 | 37 | 5.0 | 7.0 | 0.00 | 0.01 | 0.00 | 91 | 1012.2 |
| 20260508034957 | 51 | 40 | 5.0 | 9.0 | 0.00 | 0.01 | 0.00 | 91 | 1012.2 |
| 20260508033956 | 51 | 30 | 1.0 | 6.0 | 0.00 | 0.01 | 0.00 | 90 | 1012.2 |
| 20260508033006 | 51 | 0 | 0.0 | 0.0 | 0.00 | 0.01 | 0.00 | 90 | 1012.2 |
| 20260508031957 | 52 | 0 | 0.0 | 0.0 | 0.00 | 0.01 | 0.00 | 89 | 1012.2 |
| 20260508030956 | 52 | 0 | 3.0 | 0.0 | 0.00 | 0.01 | 0.00 | 89 | 1012.2 |
| 20260508024957 | 52 | 27 | 3.0 | 5.0 | 0.00 | 0.01 | 0.00 | 89 | 1012.4 |
| 20260508023957 | 51 | 16 | 4.0 | 4.0 | 0.00 | 0.01 | 0.00 | 90 | 1012.4 |
| 20260508022956 | 52 | 0 | 0.0 | 0.0 | 0.00 | 0.01 | 0.00 | 88 | 1012.5 |
| 20260508021957 | 52 | 0 | 0.0 | 0.0 | 0.00 | 0.01 | 0.00 | 88 | 1012.5 |
| 20260508020957 | 52 | 0 | 0.0 | 0.0 | 0.00 | 0.01 | 0.00 | 87 | 1012.6 |
| 20260508020002 | 52 | 0 | 0.0 | 0.0 | 0.00 | 0.01 | 0.00 | 88 | 1012.8 |
| 20260508013957 | 52 | 0 | 0.0 | 0.0 | 0.00 | 0.01 | 0.00 | 88 | 1012.9 |
| 20260508012958 | 52 | 0 | 0.0 | 0.0 | 0.00 | 0.01 | 0.00 | 87 | 1013.0 |
| 20260508011957 | 52 | 0 | 0.0 | 0.0 | 0.00 | 0.01 | 0.00 | 88 | 1013.1 |
| 20260508010957 | 52 | 0 | 0.0 | 0.0 | 0.00 | 0.01 | 0.00 | 89 | 1013.1 |
| 20260508005959 | 52 | 0 | 0.0 | 0.0 | 0.00 | 0.01 | 0.00 | 88 | 1013.1 |
| 20260508004957 | 52 | 0 | 0.0 | 0.0 | 0.00 | 0.01 | 0.00 | 88 | 1013.2 |
| 20260508003957 | 52 | 0 | 0.0 | 0.0 | 0.00 | 0.01 | 0.00 | 89 | 1013.2 |
| 20260508002957 | 53 | 0 | 0.0 | 0.0 | 0.00 | 0.01 | 0.00 | 89 | 1013.3 |
| 20260508001957 | 52 | 0 | 0.0 | 0.0 | 0.00 | 0.01 | 0.00 | 89 | 1013.4 |
| 20260508000958 | 52 | 0 | 0.0 | 0.0 | 0.00 | 0.01 | 0.00 | 90 | 1013.5 |
| 20260507235957 | 53 | 0 | 0.0 | 0.0 | 0.00 | 0.01 | 0.00 | 89 | 1013.6 |
| 20260507234957 | 53 | 0 | 0.0 | 0.0 | 0.00 | 0.01 | 0.00 | 89 | 1013.7 |
| 20260507233957 | 53 | 0 | 0.0 | 0.0 | 0.00 | 0.01 | 0.00 | 90 | 1013.8 |
| 20260507232957 | 53 | 0 | 0.0 | 0.0 | 0.00 | 0.01 | 0.00 | 90 | 1013.9 |
| 20260507231957 | 53 | 0 | 0.0 | 0.0 | 0.00 | 0.01 | 0.00 | 90 | 1014.1 |
| 20260507230959 | 53 | 0 | 0.0 | 0.0 | 0.00 | 0.01 | 0.00 | 90 | 1014.2 |
| 20260507225957 | 53 | 0 | 0.0 | 0.0 | 0.00 | 0.01 | 0.00 | 91 | 1014.3 |
| 20260507225011 | 54 | 0 | 0.0 | 0.0 | 0.00 | 0.01 | 0.00 | 90 | 1014.3 |
| 20260507222001 | 54 | 0 | 0.0 | 0.0 | 0.00 | 0.01 | 0.00 | 91 | 1014.3 |
| 20260507220957 | 54 | 0 | 0.0 | 0.0 | 0.00 | 0.01 | 0.00 | 90 | 1014.3 |
| 20260507220002 | 55 | 0 | 0.0 | 0.0 | 0.00 | 0.01 | 0.00 | 90 | 1014.2 |
| 20260507214957 | 54 | 0 | 0.0 | 0.0 | 0.00 | 0.01 | 0.01 | 91 | 1014.0 |
| 20260507212958 | 55 | 0 | 0.0 | 0.0 | 0.00 | 0.01 | 0.01 | 91 | 1013.9 |
| 20260507211956 | 55 | 0 | 0.0 | 0.0 | 0.00 | 0.01 | 0.01 | 91 | 1013.9 |
| 20260507210957 | 55 | 0 | 0.0 | 0.0 | 0.00 | 0.01 | 0.01 | 91 | 1013.8 |
| 20260507204957 | 56 | 0 | 0.0 | 0.0 | 0.00 | 0.01 | 0.01 | 90 | 1013.9 |
| 20260507203958 | 56 | 0 | 0.0 | 0.0 | 0.00 | 0.01 | 0.01 | 90 | 1014.0 |
| 20260507202006 | 56 | 0 | 0.0 | 0.0 | 0.00 | 0.01 | 0.01 | 91 | 1013.8 |
| 20260507195957 | 57 | 0 | 0.0 | 0.0 | 0.00 | 0.01 | 0.01 | 91 | 1013.7 |
| 20260507194957 | 57 | 0 | 0.0 | 0.0 | 0.00 | 0.01 | 0.01 | 90 | 1013.7 |
| 20260507193958 | 58 | 0 | 0.0 | 0.0 | 0.00 | 0.01 | 0.01 | 89 | 1013.6 |
| 20260507193001 | 58 | 0 | 0.0 | 0.0 | 0.00 | 0.01 | 0.01 | 89 | 1013.5 |
| 20260507190957 | 58 | 0 | 0.0 | 0.0 | 0.00 | 0.01 | 0.01 | 89 | 1013.4 |
| 20260507185958 | 59 | 0 | 0.0 | 0.0 | 0.00 | 0.01 | 0.01 | 88 | 1013.3 |
| 20260507183958 | 60 | 0 | 0.0 | 0.0 | 0.00 | 0.01 | 0.01 | 86 | 1013.3 |
| 20260507182957 | 60 | 0 | 0.0 | 0.0 | 0.00 | 0.01 | 0.01 | 85 | 1013.3 |
| 20260507182003 | 61 | 0 | 0.0 | 0.0 | 0.00 | 0.01 | 0.01 | 84 | 1013.2 |
| 20260507175958 | 62 | 0 | 1.0 | 0.0 | 0.00 | 0.01 | 0.01 | 81 | 1013.2 |
| 20260507174957 | 62 | 235 | 0.0 | 5.0 | 0.00 | 0.01 | 0.01 | 80 | 1013.2 |
| 20260507172959 | 63 | 0 | 0.0 | 0.0 | 0.00 | 0.01 | 0.01 | 78 | 1013.2 |
| 20260507171957 | 63 | 247 | 2.0 | 8.0 | 0.00 | 0.01 | 0.01 | 78 | 1013.4 |
| 20260507170957 | 64 | 168 | 2.0 | 5.0 | 0.00 | 0.01 | 0.01 | 78 | 1013.1 |
| 20260507170003 | 64 | 237 | 3.0 | 9.0 | 0.00 | 0.01 | 0.01 | 78 | 1013.0 |
| 20260507163958 | 64 | 238 | 6.0 | 12.0 | 0.00 | 0.01 | 0.01 | 76 | 1012.9 |
| 20260507162957 | 66 | 235 | 2.0 | 14.0 | 0.00 | 0.01 | 0.01 | 74 | 1012.9 |
| 20260507161958 | 67 | 198 | 1.0 | 9.0 | 0.00 | 0.01 | 0.01 | 72 | 1012.8 |
| 20260507160958 | 67 | 237 | 1.0 | 6.0 | 0.00 | 0.01 | 0.01 | 71 | 1012.8 |
| 20260507154957 | 66 | 195 | 2.0 | 4.0 | 0.00 | 0.01 | 0.01 | 72 | 1012.9 |
| 20260507150958 | 65 | 235 | 3.0 | 13.0 | 0.01 | 0.01 | 0.01 | 74 | 1013.0 |
| 20260507150011 | 65 | 178 | 3.0 | 9.0 | 0.01 | 0.01 | 0.01 | 74 | 1013.0 |
| 20260507144958 | 65 | 190 | 2.0 | 4.0 | 0.01 | 0.01 | 0.01 | 75 | 1013.0 |
| 20260507142958 | 64 | 169 | 2.0 | 5.0 | 0.01 | 0.01 | 0.01 | 78 | 1013.2 |
| 20260507141958 | 63 | 163 | 1.0 | 6.0 | 0.01 | 0.01 | 0.01 | 80 | 1013.3 |
| 20260507133957 | 62 | 0 | 0.0 | 0.0 | 0.00 | 0.00 | 0.00 | 83 | 1013.3 |
| 20260507132958 | 61 | 76 | 2.0 | 2.0 | 0.00 | 0.00 | 0.00 | 84 | 1013.4 |
| 20260507130957 | 62 | 0 | 1.0 | 0.0 | 0.00 | 0.00 | 0.00 | 83 | 1013.4 |